Other Surface Observations
Issued by NWS Great Falls, MT

Home | Current Version | Previous Version | Text Only | Print | Product List | Glossary On
Versions: 1 2 3 4 5 6 7 8 9 10 11 12 13 14 15 16 17 18 19 20 21 22 23 24 25 26 27 28 29 30 31 32 33 34 35 36 37 38 39 40 41 42 43 44 45 46 47 48 49 50
000
SXUS55 KTFX 300559
OSOTFX
AREA AWOS OBSERVATIONS
NATIONAL WEATHER SERVICE GREAT FALLS MT
1159 PM MDT FRI JUL 29 2016

METAR KPWD 300600Z AUTO 06004KT 5SM 17/13 A2996 RMK PLENTYWOOD
METAR KPO1 300600Z AUTO 00000KT 10SM 18/12 A2995 RMK POPLAR
METAR K1S3 300600Z AUTO 13003KT 10SM 21/13 A2995 RMK FORSYTH
METAR KS71 300600Z AUTO 00000KT 10SM 19/14 A2990 RMK CHINOOK
METAR K38S 300600Z AUTO 00000KT 10SM 18/07 A3001 RMK DEER LODGE
METAR K6S5 300600Z AUTO 00000KT 10SM 21/09 A2991 RMK HAMILTON
METAR KS59 300600Z AUTO 14004KT 10SM 21/10 A2982 RMK LIBBY
METAR K88M 300600Z AUTO 14006KT 10SM 23/11 A2982 RMK EUREKA



USA.gov is the U.S. government's official web portal to all federal, state and local government web resources and services.